Time;durP1;ratioP1;P1;durP2;ratioP2;P2;SDS_P1;SDS_P2;PMS_P1;PMS_P2;Temp;Humidity;BMP_temperature;BMP_pressure;BME280_temperature;BME280_humidity;BME280_pressure;Samples;Min_cycle;Max_cycle;Signal;HPM_P1;HPM_P2
2022/07/11 00:02:07;;;;;;;6.97;1.65;;;15.90;99.90;;;;;;6245942;23;20016;-83
2022/07/11 00:04:34;;;;;;;6.88;1.83;;;15.90;99.90;;;;;;6246015;23;20093;-84
2022/07/11 00:07:01;;;;;;;6.68;1.70;;;16.00;99.90;;;;;;6245966;23;20016;-84
2022/07/11 00:09:28;;;;;;;6.68;1.90;;;16.10;99.90;;;;;;6245944;23;20012;-88
2022/07/11 00:11:54;;;;;;;4.95;1.60;;;15.90;99.90;;;;;;6246153;23;20012;-84
2022/07/11 00:14:21;;;;;;;6.43;2.17;;;15.90;99.90;;;;;;6245641;23;20095;-83
2022/07/11 00:16:47;;;;;;;6.20;1.70;;;15.90;99.90;;;;;;6246295;23;20317;-86
2022/07/11 00:19:13;;;;;;;4.53;1.75;;;15.80;99.90;;;;;;6245861;23;20044;-85
2022/07/11 00:21:39;;;;;;;7.97;1.90;;;15.80;99.90;;;;;;6245971;23;20346;-83
2022/07/11 00:24:07;;;;;;;5.70;1.83;;;15.70;99.90;;;;;;6219403;23;20020;-83
2022/07/11 00:26:33;;;;;;;13.73;2.30;;;15.70;99.90;;;;;;6218959;23;20043;-82
2022/07/11 00:28:59;;;;;;;8.45;2.20;;;15.60;99.90;;;;;;6245648;23;20024;-83
2022/07/11 00:31:25;;;;;;;4.93;2.40;;;15.50;99.90;;;;;;6245706;23;20440;-84
2022/07/11 00:33:50;;;;;;;9.40;2.50;;;15.40;99.90;;;;;;6245913;23;20027;-83
2022/07/11 00:36:16;;;;;;;9.75;2.42;;;15.30;99.90;;;;;;6218573;23;20023;-82
2022/07/11 00:38:41;;;;;;;10.65;2.47;;;15.30;99.90;;;;;;6219003;23;20016;-82
2022/07/11 00:41:07;;;;;;;9.77;2.97;;;15.20;99.90;;;;;;6245928;23;20016;-83
2022/07/11 00:43:38;;;;;;;5.70;2.97;;;15.20;99.90;;;;;;6219014;23;20015;-82
2022/07/11 00:46:05;;;;;;;4.32;2.80;;;15.10;99.90;;;;;;6219034;23;20016;-82
2022/07/11 00:48:31;;;;;;;9.93;3.38;;;15.10;99.90;;;;;;6245517;23;20017;-83
2022/07/11 00:50:57;;;;;;;8.20;3.10;;;15.10;99.90;;;;;;6245511;23;20340;-83
2022/07/11 00:53:24;;;;;;;10.82;3.20;;;15.10;99.90;;;;;;6245728;23;20023;-82
2022/07/11 00:55:53;;;;;;;7.03;3.50;;;15.20;99.90;;;;;;6218615;23;20051;-83
2022/07/11 00:58:19;;;;;;;10.52;3.25;;;15.10;99.90;;;;;;6218737;23;20055;-82
2022/07/11 01:00:45;;;;;;;11.75;3.67;;;15.20;99.90;;;;;;6218587;23;20074;-82
2022/07/11 01:03:11;;;;;;;8.90;3.70;;;15.20;99.90;;;;;;6218708;23;20020;-82
2022/07/11 01:05:37;;;;;;;8.25;3.67;;;15.10;99.90;;;;;;6245446;23;20027;-83
2022/07/11 01:08:03;;;;;;;14.57;4.07;;;15.10;99.90;;;;;;6218583;23;20078;-83
2022/07/11 01:10:29;;;;;;;7.20;3.92;;;15.10;99.90;;;;;;6245355;23;20070;-83
2022/07/11 01:12:55;;;;;;;17.60;4.40;;;15.10;99.90;;;;;;6218824;23;20139;-82
2022/07/11 01:15:22;;;;;;;11.48;3.33;;;15.00;99.90;;;;;;6244808;23;20025;-82
2022/07/11 01:17:47;;;;;;;6.88;3.35;;;15.00;99.90;;;;;;6245819;23;20502;-83
2022/07/11 01:20:13;;;;;;;12.18;4.22;;;15.00;99.90;;;;;;6245351;23;20447;-82
2022/07/11 01:22:51;;;;;;;10.77;4.80;;;15.00;99.90;;;;;;6245476;23;20043;-82
2022/07/11 01:25:30;;;;;;;6.80;3.80;;;15.00;99.90;;;;;;6245410;23;20024;-83
2022/07/11 01:28:00;;;;;;;11.38;4.78;;;15.20;99.90;;;;;;6245456;23;20016;-82
2022/07/11 01:30:27;;;;;;;13.77;5.03;;;15.20;99.90;;;;;;6245627;23;20016;-82
2022/07/11 01:32:54;;;;;;;15.20;5.10;;;15.10;99.90;;;;;;6193680;23;20101;-82
2022/07/11 01:35:22;;;;;;;10.52;4.10;;;15.10;99.90;;;;;;6245237;23;20012;-82
2022/07/11 01:37:48;;;;;;;9.00;4.75;;;15.10;99.90;;;;;;6218448;23;20012;-83
2022/07/11 01:40:13;;;;;;;8.90;3.83;;;15.10;99.90;;;;;;6245404;23;20012;-82
2022/07/11 01:42:40;;;;;;;8.60;4.25;;;15.10;99.90;;;;;;6245401;23;20501;-82
2022/07/11 01:45:05;;;;;;;12.57;4.35;;;15.10;99.90;;;;;;6245406;23;20020;-82
2022/07/11 01:47:31;;;;;;;11.05;3.85;;;15.10;99.90;;;;;;6217965;23;20012;-82
2022/07/11 01:49:57;;;;;;;10.35;4.60;;;15.20;99.90;;;;;;6218470;23;20023;-82
2022/07/11 01:52:22;;;;;;;16.05;5.30;;;15.10;99.90;;;;;;6245418;23;20020;-83
2022/07/11 01:54:48;;;;;;;8.40;4.60;;;15.20;99.90;;;;;;6245292;23;20027;-82
2022/07/11 01:57:14;;;;;;;11.57;4.30;;;15.10;99.90;;;;;;6245216;23;20397;-82
2022/07/11 01:59:40;;;;;;;9.48;4.22;;;15.10;99.90;;;;;;6245171;23;20027;-84
2022/07/11 02:02:06;;;;;;;11.45;4.30;;;15.10;99.90;;;;;;6244780;23;20020;-83
2022/07/11 02:04:32;;;;;;;13.13;4.68;;;15.00;99.90;;;;;;6245328;23;20046;-83
2022/07/11 02:06:57;;;;;;;7.97;3.67;;;15.00;99.90;;;;;;6218531;23;20016;-82
2022/07/11 02:09:23;;;;;;;13.27;4.72;;;14.90;99.90;;;;;;6218352;23;20447;-82
2022/07/11 02:11:49;;;;;;;9.45;4.20;;;15.00;99.90;;;;;;6245266;23;20016;-82
2022/07/11 02:14:15;;;;;;;13.70;4.47;;;15.00;99.90;;;;;;6218394;23;20059;-83
2022/07/11 02:16:41;;;;;;;7.63;4.25;;;15.00;99.90;;;;;;6218299;23;20027;-84
2022/07/11 02:19:07;;;;;;;12.13;4.35;;;15.00;99.90;;;;;;6245130;23;20051;-85
2022/07/11 02:21:33;;;;;;;9.38;4.18;;;15.00;99.90;;;;;;6218285;23;20020;-83
2022/07/11 02:23:59;;;;;;;8.63;4.55;;;14.90;99.90;;;;;;6245004;23;20020;-83
2022/07/11 02:26:25;;;;;;;7.22;4.07;;;15.00;99.90;;;;;;6219553;23;20070;-83
2022/07/11 02:28:51;;;;;;;8.98;4.72;;;15.00;99.90;;;;;;6246858;23;20016;-83
2022/07/11 02:31:16;;;;;;;12.88;4.30;;;15.10;99.90;;;;;;6219984;23;20095;-83
2022/07/11 02:33:42;;;;;;;12.07;4.28;;;15.00;99.90;;;;;;6246865;23;20375;-82
2022/07/11 02:36:08;;;;;;;7.70;4.03;;;15.10;99.90;;;;;;6220304;23;20016;-82
2022/07/11 02:38:34;;;;;;;13.00;4.03;;;15.00;99.90;;;;;;6246882;23;20031;-84
2022/07/11 02:41:00;;;;;;;7.60;4.10;;;15.10;99.90;;;;;;6246403;23;20474;-85
2022/07/11 02:43:26;;;;;;;7.85;3.67;;;15.10;99.90;;;;;;6246898;23;20086;-82
2022/07/11 02:45:52;;;;;;;11.05;4.78;;;15.00;99.90;;;;;;6246955;23;20090;-82
2022/07/11 02:48:17;;;;;;;10.90;3.95;;;15.10;99.90;;;;;;6246621;23;20415;-82
2022/07/11 02:50:43;;;;;;;6.97;4.32;;;15.00;99.90;;;;;;6246728;23;20313;-82
2022/07/11 02:53:09;;;;;;;9.40;4.30;;;15.00;99.90;;;;;;6220086;23;20083;-82
2022/07/11 02:55:34;;;;;;;9.63;4.65;;;15.00;99.90;;;;;;6246911;23;20507;-82
2022/07/11 02:58:00;;;;;;;13.23;4.68;;;15.00;99.90;;;;;;6246721;23;20012;-83
2022/07/11 03:00:26;;;;;;;12.90;5.03;;;14.90;99.90;;;;;;6246822;23;20109;-82
2022/07/11 03:02:52;;;;;;;7.35;4.25;;;15.00;99.90;;;;;;6246216;23;20418;-82
2022/07/11 03:05:17;;;;;;;10.45;4.70;;;15.00;99.90;;;;;;6246641;23;20098;-82
2022/07/11 03:07:43;;;;;;;9.55;4.00;;;15.00;99.90;;;;;;6246666;23;20095;-82
2022/07/11 03:10:09;;;;;;;6.57;4.20;;;15.00;99.90;;;;;;6246541;23;20060;-83
2022/07/11 03:12:35;;;;;;;9.00;4.45;;;15.00;99.90;;;;;;6219008;23;20411;-83
2022/07/11 03:15:01;;;;;;;13.70;4.88;;;15.00;99.90;;;;;;6246227;23;20077;-81
2022/07/11 03:17:26;;;;;;;7.85;4.47;;;15.00;99.90;;;;;;6246286;23;20396;-82
2022/07/11 03:19:52;;;;;;;7.28;3.72;;;15.00;99.90;;;;;;6246367;23;20016;-89
2022/07/11 03:22:18;;;;;;;12.10;4.38;;;15.00;99.90;;;;;;6246587;23;20461;-82
2022/07/11 03:24:43;;;;;;;10.15;3.92;;;15.00;99.90;;;;;;6246046;23;20016;-82
2022/07/11 03:27:09;;;;;;;7.78;4.07;;;15.00;99.90;;;;;;6246262;23;20032;-82
2022/07/11 03:29:36;;;;;;;12.30;4.30;;;15.00;99.90;;;;;;6246138;23;20023;-82
2022/07/11 03:32:01;;;;;;;8.23;3.67;;;15.00;99.90;;;;;;6246188;23;20328;-88
2022/07/11 03:34:27;;;;;;;12.23;5.47;;;15.00;99.90;;;;;;6245722;23;20023;-82
2022/07/11 03:36:54;;;;;;;10.95;4.65;;;15.00;99.90;;;;;;6245581;23;20016;-82
2022/07/11 03:39:21;;;;;;;9.45;3.95;;;15.00;99.90;;;;;;6245617;23;20460;-83
2022/07/11 03:41:46;;;;;;;13.85;5.05;;;14.80;99.90;;;;;;6245890;23;20020;-83
2022/07/11 03:44:12;;;;;;;13.77;4.97;;;14.90;99.90;;;;;;6246020;23;20016;-82
2022/07/11 03:46:38;;;;;;;13.10;4.55;;;14.90;99.90;;;;;;6246299;23;20016;-82
2022/07/11 03:49:03;;;;;;;11.60;4.78;;;14.90;99.90;;;;;;6246261;23;20138;-83
2022/07/11 03:51:29;;;;;;;19.48;5.10;;;14.90;99.90;;;;;;6246251;23;20059;-82
2022/07/11 03:53:55;;;;;;;12.48;4.90;;;14.90;99.90;;;;;;6246415;23;20335;-82
2022/07/11 03:56:22;;;;;;;11.93;5.00;;;14.90;99.90;;;;;;6246114;23;20078;-82
2022/07/11 03:58:50;;;;;;;12.13;4.60;;;14.90;99.90;;;;;;6246145;23;20082;-83
2022/07/11 04:01:16;;;;;;;10.15;4.82;;;14.90;99.90;;;;;;6219244;23;20455;-82
2022/07/11 04:03:42;;;;;;;8.40;4.05;;;14.90;99.90;;;;;;6219192;23;20016;-82
2022/07/11 04:06:08;;;;;;;9.48;4.05;;;14.90;99.90;;;;;;6245979;23;20016;-82
2022/07/11 04:08:34;;;;;;;9.05;4.72;;;14.90;99.90;;;;;;6246104;23;20034;-83
2022/07/11 04:10:59;;;;;;;15.77;4.75;;;14.90;99.90;;;;;;6245888;23;20044;-82
2022/07/11 04:13:25;;;;;;;14.70;4.97;;;14.90;99.90;;;;;;6219354;23;20023;-82
2022/07/11 04:15:51;;;;;;;11.18;4.47;;;14.90;99.90;;;;;;6246103;23;20069;-82
2022/07/11 04:18:17;;;;;;;10.00;4.40;;;15.00;99.90;;;;;;6245905;23;20024;-81
2022/07/11 04:20:42;;;;;;;10.00;4.07;;;15.00;99.90;;;;;;6219084;23;20054;-82
2022/07/11 04:23:08;;;;;;;13.75;4.85;;;15.00;99.90;;;;;;6193424;23;20050;-83
2022/07/11 04:25:34;;;;;;;8.63;4.50;;;15.00;99.90;;;;;;6193439;23;20448;-82
2022/07/11 04:28:00;;;;;;;11.07;4.22;;;14.90;99.90;;;;;;6245774;23;20016;-82
2022/07/11 04:30:26;;;;;;;10.25;4.22;;;15.00;99.90;;;;;;6218709;23;20012;-83
2022/07/11 04:32:52;;;;;;;7.68;3.88;;;15.10;99.90;;;;;;6245980;23;20428;-81
2022/07/11 04:35:17;;;;;;;9.45;4.35;;;15.10;99.90;;;;;;6245369;23;20016;-82
2022/07/11 04:37:44;;;;;;;9.50;4.35;;;15.10;99.90;;;;;;6245748;23;20093;-82
2022/07/11 04:40:10;;;;;;;8.13;4.10;;;15.10;99.90;;;;;;6218387;23;20027;-82
2022/07/11 04:42:35;;;;;;;11.55;3.55;;;15.20;99.90;;;;;;6218761;23;20008;-82
2022/07/11 04:45:01;;;;;;;8.77;3.95;;;15.20;99.90;;;;;;6218908;23;20110;-82
2022/07/11 04:47:27;;;;;;;6.82;3.83;;;15.30;99.90;;;;;;6245673;23;20016;-81
2022/07/11 04:49:52;;;;;;;6.60;3.25;;;15.30;99.90;;;;;;6218857;23;20016;-84
2022/07/11 04:52:18;;;;;;;3.63;2.55;;;15.30;99.90;;;;;;6245701;23;20023;-84
2022/07/11 04:54:44;;;;;;;5.38;2.63;;;15.40;99.90;;;;;;6218813;23;20016;-82
2022/07/11 04:57:09;;;;;;;5.03;2.65;;;15.50;99.90;;;;;;6245589;23;20063;-83
2022/07/11 04:59:35;;;;;;;3.85;2.70;;;15.40;99.90;;;;;;6245509;23;20470;-82
2022/07/11 05:02:01;;;;;;;6.78;2.40;;;15.40;99.90;;;;;;6218935;23;20019;-81
2022/07/11 05:04:26;;;;;;;6.57;2.67;;;15.40;99.90;;;;;;6245707;23;20016;-82
2022/07/11 05:06:52;;;;;;;5.47;2.75;;;15.40;99.90;;;;;;6245474;23;20506;-82
2022/07/11 05:09:18;;;;;;;3.88;2.80;;;15.40;99.90;;;;;;6218547;23;20456;-82
2022/07/11 05:11:44;;;;;;;3.67;2.28;;;15.40;99.90;;;;;;6245524;23;20018;-82
2022/07/11 05:14:10;;;;;;;3.88;2.08;;;15.50;99.90;;;;;;6218419;23;20055;-83
2022/07/11 05:16:35;;;;;;;2.97;1.85;;;15.50;99.90;;;;;;6213100;23;20068;-81
2022/07/11 05:19:01;;;;;;;3.65;2.25;;;15.60;99.90;;;;;;6215154;23;20013;-82
2022/07/11 05:21:27;;;;;;;3.53;1.98;;;15.70;99.90;;;;;;6215189;23;20016;-89
2022/07/11 05:23:52;;;;;;;4.40;2.17;;;15.80;99.90;;;;;;6215188;23;20339;-81
2022/07/11 05:26:18;;;;;;;2.45;1.90;;;15.90;99.90;;;;;;6215215;23;20020;-82
2022/07/11 05:28:44;;;;;;;2.40;1.83;;;16.00;99.90;;;;;;6215001;23;20310;-83
2022/07/11 05:31:10;;;;;;;3.85;1.70;;;16.00;99.90;;;;;;6212997;23;20021;-82
2022/07/11 05:33:36;;;;;;;5.43;1.65;;;15.90;99.90;;;;;;6215063;23;20074;-81
2022/07/11 05:36:02;;;;;;;3.95;1.80;;;15.90;99.90;;;;;;6215135;23;20024;-82
2022/07/11 05:38:28;;;;;;;3.72;1.75;;;16.00;99.90;;;;;;6213555;23;20099;-82
2022/07/11 05:40:53;;;;;;;2.88;1.45;;;16.20;99.90;;;;;;6215242;23;20023;-83
2022/07/11 05:43:19;;;;;;;4.03;1.35;;;16.20;99.90;;;;;;6213325;23;20452;-83
2022/07/11 05:45:45;;;;;;;2.67;1.17;;;16.30;99.90;;;;;;6214852;23;20769;-82
2022/07/11 05:48:11;;;;;;;1.77;1.13;;;16.40;99.90;;;;;;6214789;23;20069;-82
2022/07/11 05:50:36;;;;;;;2.60;1.00;;;16.50;99.90;;;;;;6213539;23;20423;-80
2022/07/11 05:53:02;;;;;;;2.85;1.08;;;16.60;99.90;;;;;;6214618;23;20020;-81
2022/07/11 05:55:29;;;;;;;2.13;1.02;;;16.50;99.90;;;;;;6215113;23;20028;-83
2022/07/11 05:58:00;;;;;;;1.75;0.80;;;16.50;99.90;;;;;;6215082;23;20020;-82
2022/07/11 06:00:27;;;;;;;3.13;1.00;;;16.50;99.90;;;;;;6215430;23;20095;-82
2022/07/11 06:02:53;;;;;;;1.45;0.80;;;16.40;99.90;;;;;;6215340;23;20055;-86
2022/07/11 06:05:18;;;;;;;2.63;0.90;;;16.40;99.90;;;;;;6217352;23;20228;-83
2022/07/11 06:10:28;;;;;;;4.40;0.82;;;16.60;99.90;;;;;;6215354;23;20104;-84
2022/07/11 06:12:54;;;;;;;2.22;0.90;;;16.80;99.90;;;;;;6215205;23;20067;-84
2022/07/11 06:15:20;;;;;;;1.20;0.70;;;16.90;99.90;;;;;;6215120;23;20020;-81
2022/07/11 06:17:46;;;;;;;0.95;0.60;;;17.00;99.90;;;;;;6190310;23;20263;-83
2022/07/11 06:20:12;;;;;;;1.40;0.55;;;17.00;99.90;;;;;;6216751;23;20014;-82
2022/07/11 06:22:38;;;;;;;1.40;0.50;;;17.00;99.90;;;;;;6215094;23;20021;-83
2022/07/11 06:25:04;;;;;;;0.85;0.50;;;17.10;99.90;;;;;;6216623;23;20016;-83
2022/07/11 06:27:30;;;;;;;1.08;0.43;;;17.10;99.90;;;;;;6216678;23;20341;-82
2022/07/11 06:29:55;;;;;;;2.17;0.50;;;17.20;99.90;;;;;;6216474;23;20013;-84
2022/07/11 06:32:23;;;;;;;3.67;0.50;;;17.30;99.90;;;;;;6216989;23;20102;-86
2022/07/11 06:34:49;;;;;;;1.27;0.55;;;17.50;99.90;;;;;;6215084;23;20083;-83
2022/07/11 06:37:15;;;;;;;1.17;0.50;;;17.70;99.90;;;;;;6216623;23;20021;-84
2022/07/11 06:39:40;;;;;;;1.60;0.47;;;17.80;99.90;;;;;;6216654;23;20013;-82
2022/07/11 06:42:06;;;;;;;0.75;0.60;;;17.90;99.90;;;;;;6216578;23;20020;-82
2022/07/11 06:44:32;;;;;;;1.98;0.70;;;17.90;99.90;;;;;;6215128;23;20075;-84
2022/07/11 06:46:58;;;;;;;1.42;0.70;;;17.80;99.90;;;;;;6214996;23;20020;-83
2022/07/11 06:49:24;;;;;;;1.52;0.60;;;17.80;99.90;;;;;;6216831;23;20015;-85
2022/07/11 06:51:50;;;;;;;1.42;0.50;;;18.00;99.90;;;;;;6215170;23;20017;-83
2022/07/11 06:54:16;;;;;;;1.05;0.43;;;17.90;99.90;;;;;;6216637;23;20024;-82
2022/07/11 06:56:41;;;;;;;0.55;0.40;;;17.90;99.90;;;;;;6216577;23;20017;-82
2022/07/11 06:59:07;;;;;;;4.18;0.50;;;18.00;99.90;;;;;;6214766;23;20013;-82
2022/07/11 07:01:33;;;;;;;0.52;0.32;;;18.00;99.90;;;;;;6216613;23;20613;-83
2022/07/11 07:03:58;;;;;;;0.45;0.22;;;18.30;99.90;;;;;;6188919;23;20017;-84
2022/07/11 07:06:24;;;;;;;0.30;0.30;;;18.60;99.90;;;;;;6214213;23;20021;-82
2022/07/11 07:08:50;;;;;;;0.43;0.40;;;18.90;99.90;;;;;;6214708;23;20083;-85
2022/07/11 07:11:15;;;;;;;0.55;0.20;;;19.00;99.90;;;;;;6216237;23;20052;-84
2022/07/11 07:13:41;;;;;;;0.73;0.40;;;19.10;99.90;;;;;;6215967;23;20051;-83
2022/07/11 07:16:07;;;;;;;1.30;0.30;;;19.20;99.90;;;;;;6214189;23;20021;-83
2022/07/11 07:18:33;;;;;;;1.35;0.40;;;19.30;99.90;;;;;;6216198;23;20016;-82
2022/07/11 07:20:59;;;;;;;0.40;0.28;;;19.30;99.90;;;;;;6214770;23;20023;-85
2022/07/11 07:23:24;;;;;;;0.98;0.35;;;19.20;99.90;;;;;;6216622;23;20013;-84
2022/07/11 07:25:50;;;;;;;1.23;0.38;;;19.10;99.90;;;;;;6216107;23;20039;-84
2022/07/11 07:28:16;;;;;;;1.25;0.28;;;18.90;99.90;;;;;;6216213;23;20024;-85
2022/07/11 07:30:42;;;;;;;1.05;0.25;;;18.70;99.90;;;;;;6216379;23;20055;-85
2022/07/11 07:33:08;;;;;;;1.55;0.30;;;18.60;99.90;;;;;;6214648;23;20455;-83
2022/07/11 07:35:33;;;;;;;1.42;0.40;;;18.50;99.90;;;;;;6216226;23;20021;-83
2022/07/11 07:38:00;;;;;;;0.60;0.20;;;18.50;99.90;;;;;;6214653;23;20020;-84
2022/07/11 07:40:26;;;;;;;1.20;0.50;;;18.40;99.90;;;;;;6216965;23;20305;-84
2022/07/11 07:42:52;;;;;;;1.63;0.50;;;18.10;99.90;;;;;;6216345;23;20023;-83
2022/07/11 07:45:18;;;;;;;1.55;0.40;;;18.10;99.90;;;;;;6216361;23;20048;-83
2022/07/11 07:47:43;;;;;;;0.80;0.40;;;18.20;99.90;;;;;;6215061;23;20021;-82
2022/07/11 07:50:09;;;;;;;0.65;0.50;;;18.30;99.90;;;;;;6216404;23;20341;-83
2022/07/11 07:52:35;;;;;;;0.93;0.70;;;18.50;99.90;;;;;;6216855;23;20016;-88
2022/07/11 07:55:01;;;;;;;1.02;0.60;;;18.60;99.90;;;;;;6214996;23;20027;-85
2022/07/11 07:57:27;;;;;;;1.25;0.60;;;18.40;99.90;;;;;;6215146;23;20071;-85
2022/07/11 08:01:34;;;;;;;0.85;0.40;;;18.30;99.90;;;;;;6216591;23;20016;-85
2022/07/11 08:02:38;;;;;;;2.20;0.30;;;18.30;99.90;;;;;;6215083;23;20024;-83
2022/07/11 08:05:04;;;;;;;1.73;0.43;;;18.20;99.90;;;;;;6216453;23;20067;-85
2022/07/11 08:07:29;;;;;;;0.47;0.40;;;18.30;99.90;;;;;;6217504;23;20099;-84
2022/07/11 08:10:07;;;;;;;2.10;0.50;;;18.50;99.90;;;;;;6215285;23;20019;-84
2022/07/11 08:12:33;;;;;;;0.93;0.40;;;18.80;99.90;;;;;;6215123;23;20021;-85
2022/07/11 08:14:58;;;;;;;0.75;0.40;;;19.20;99.90;;;;;;6225605;23;20328;-81
2022/07/11 08:17:24;;;;;;;0.85;0.40;;;19.40;99.90;;;;;;6246684;23;20103;-83
2022/07/11 08:19:50;;;;;;;0.55;0.38;;;19.40;99.90;;;;;;6192832;23;20023;-84
2022/07/11 08:22:15;;;;;;;2.47;0.35;;;19.30;99.90;;;;;;6246595;23;20069;-84
2022/07/11 08:24:41;;;;;;;0.60;0.20;;;19.10;99.90;;;;;;6246394;23;20023;-83
2022/07/11 08:27:06;;;;;;;0.70;0.20;;;18.90;99.90;;;;;;6246216;23;20012;-83
2022/07/11 08:29:32;;;;;;;0.82;0.30;;;18.80;99.90;;;;;;6218411;23;20078;-83
2022/07/11 08:31:58;;;;;;;2.47;0.50;;;18.90;99.90;;;;;;6246270;23;20443;-83
2022/07/11 08:34:24;;;;;;;1.88;0.30;;;19.00;99.90;;;;;;6218825;23;20016;-84
2022/07/11 08:36:51;;;;;;;1.05;0.40;;;19.30;99.90;;;;;;6245856;23;20066;-83
2022/07/11 08:39:17;;;;;;;0.28;0.20;;;19.70;99.90;;;;;;6219136;23;20031;-83
2022/07/11 08:41:44;;;;;;;1.50;0.20;;;20.80;99.90;;;;;;6217742;23;20016;-84
2022/07/11 08:44:11;;;;;;;0.93;0.30;;;21.70;99.90;;;;;;6218795;23;20016;-82
2022/07/11 08:46:40;;;;;;;1.70;0.30;;;22.00;99.90;;;;;;6246164;23;20052;-83
2022/07/11 08:49:06;;;;;;;1.40;0.35;;;21.80;99.90;;;;;;6245663;23;20424;-86
2022/07/11 08:51:32;;;;;;;1.02;0.30;;;21.40;99.90;;;;;;6193278;23;20019;-87
2022/07/11 08:53:57;;;;;;;0.30;0.20;;;21.00;99.90;;;;;;6245831;23;20313;-86
2022/07/11 08:56:27;;;;;;;1.70;0.30;;;20.60;99.90;;;;;;6219087;23;20027;-86
2022/07/11 08:58:53;;;;;;;0.20;0.10;;;20.30;99.90;;;;;;6192903;23;20020;-82
2022/07/11 09:01:30;;;;;;;0.32;0.20;;;20.10;99.90;;;;;;6245469;23;20153;-85
2022/07/11 09:04:33;;;;;;;1.27;0.20;;;19.90;99.90;;;;;;6193222;23;20023;-84
2022/07/11 09:07:01;;;;;;;0.40;0.20;;;19.70;99.90;;;;;;6245281;23;20478;-83
2022/07/11 09:09:30;;;;;;;0.45;0.20;;;19.50;99.90;;;;;;6193737;23;20023;-85
2022/07/11 09:11:57;;;;;;;1.10;0.30;;;19.40;99.90;;;;;;6245741;23;20050;-86
2022/07/11 09:14:24;;;;;;;3.53;0.30;;;19.30;99.90;;;;;;6219068;23;20016;-82
2022/07/11 09:16:58;;;;;;;1.27;0.30;;;19.40;99.90;;;;;;6219101;23;20047;-84
2022/07/11 09:19:26;;;;;;;1.45;0.43;;;19.60;99.90;;;;;;6245950;23;20020;-87
2022/07/11 09:27:48;;;;;;;0.20;0.20;;;22.30;99.90;;;;;;6219374;23;20099;-86
2022/07/11 09:30:31;;;;;;;0.28;0.28;;;23.30;99.90;;;;;;6245704;23;20094;-85
2022/07/11 09:33:03;;;;;;;0.73;0.30;;;23.20;99.90;;;;;;6218927;23;20016;-86
2022/07/11 09:35:37;;;;;;;0.30;0.25;;;22.70;99.90;;;;;;6246186;23;20028;-85
2022/07/11 09:38:07;;;;;;;1.10;0.30;;;22.10;99.90;;;;;;6247915;23;20019;-85
2022/07/11 09:40:33;;;;;;;0.77;0.40;;;21.50;99.90;;;;;;6220829;23;20107;-88
2022/07/11 09:43:00;;;;;;;0.93;0.40;;;20.90;99.90;;;;;;6247797;23;20081;-82
2022/07/11 09:45:28;;;;;;;0.68;0.30;;;20.50;99.90;;;;;;6247879;23;20020;-85
2022/07/11 09:47:56;;;;;;;1.40;0.30;;;20.30;99.90;;;;;;6247560;23;20020;-87
2022/07/11 09:50:24;;;;;;;0.80;0.32;;;20.20;99.90;;;;;;6247592;23;20019;-85
2022/07/11 09:53:05;;;;;;;1.05;0.40;;;20.00;99.90;;;;;;6247733;23;20340;-85
2022/07/11 09:55:35;;;;;;;0.85;0.30;;;20.10;99.90;;;;;;6233792;23;20012;-88
2022/07/11 09:58:08;;;;;;;1.48;0.30;;;20.20;99.90;;;;;;6263391;23;20051;-92
2022/07/11 10:00:35;;;;;;;1.17;0.40;;;20.30;99.90;;;;;;6265923;23;20020;-87
2022/07/11 10:03:11;;;;;;;1.75;0.30;;;20.50;99.90;;;;;;6221148;23;20019;-88
2022/07/11 10:05:38;;;;;;;0.22;0.20;;;20.70;99.90;;;;;;6247781;23;20016;-88
2022/07/11 10:08:05;;;;;;;1.02;0.25;;;20.70;99.90;;;;;;6219998;23;20016;-84
2022/07/11 10:10:32;;;;;;;1.98;0.30;;;20.90;99.90;;;;;;6220296;23;20500;-91
2022/07/11 10:12:58;;;;;;;1.65;0.30;;;20.90;99.90;;;;;;6247412;23;20348;-90
2022/07/11 10:15:35;;;;;;;0.20;0.20;;;20.80;99.90;;;;;;6220171;23;20027;-87
2022/07/11 10:18:05;;;;;;;1.40;0.40;;;20.80;99.90;;;;;;6220110;23;20024;-83
2022/07/11 10:20:57;;;;;;;2.38;0.30;;;20.80;99.90;;;;;;6219632;23;20016;-86
2022/07/11 10:23:48;;;;;;;0.73;0.30;;;20.90;99.90;;;;;;6220985;23;20027;-91
2022/07/11 10:26:38;;;;;;;1.03;0.23;;;21.10;99.90;;;;;;6247673;23;20105;-90
2022/07/11 10:29:22;;;;;;;1.23;0.10;;;21.20;99.90;;;;;;6221846;22;20263;-87
2022/07/11 10:32:04;;;;;;;1.45;0.20;;;21.60;99.90;;;;;;6248405;23;20444;-88
2022/07/11 10:34:29;;;;;;;1.40;0.20;;;22.10;99.90;;;;;;6248565;23;20059;-87
2022/07/11 10:36:59;;;;;;;0.80;0.20;;;22.70;99.90;;;;;;6247400;23;20317;-89
2022/07/11 10:39:26;;;;;;;0.75;0.30;;;22.70;99.90;;;;;;6220269;23;20012;-90
2022/07/11 10:41:53;;;;;;;2.17;0.65;;;22.40;99.90;;;;;;6247014;23;20020;-86
2022/07/11 10:44:19;;;;;;;1.60;0.20;;;22.20;99.90;;;;;;6220211;23;20024;-85
2022/07/11 10:46:45;;;;;;;0.57;0.30;;;21.90;99.90;;;;;;6219167;23;20558;-92
2022/07/11 10:49:14;;;;;;;0.32;0.25;;;21.70;99.90;;;;;;6246896;23;20327;-87
2022/07/11 10:52:06;;;;;;;2.47;0.30;;;21.70;99.90;;;;;;6220351;23;20351;-87
2022/07/11 10:55:06;;;;;;;0.20;0.10;;;21.70;99.90;;;;;;6220181;23;20027;-87
2022/07/11 10:57:49;;;;;;;1.05;0.20;;;21.70;99.90;;;;;;6219894;23;20012;-89
2022/07/11 11:00:20;;;;;;;0.50;0.30;;;21.90;99.90;;;;;;6246914;23;20487;-88
2022/07/11 11:03:08;;;;;;;0.57;0.20;;;22.00;99.90;;;;;;6219424;23;20016;-90
2022/07/11 11:05:47;;;;;;;0.30;0.20;;;22.00;99.90;;;;;;6195114;23;20016;-89
2022/07/11 11:08:40;;;;;;;0.30;0.17;;;21.90;99.90;;;;;;6219997;23;20020;-88
2022/07/11 11:11:24;;;;;;;0.50;0.30;;;21.90;99.90;;;;;;6219566;23;20023;-86
2022/07/11 11:14:15;;;;;;;1.20;0.20;;;22.00;99.90;;;;;;6220040;23;20082;-88
2022/07/11 11:16:40;;;;;;;0.80;0.20;;;22.10;99.90;;;;;;6247086;23;20020;-85
2022/07/11 11:19:06;;;;;;;0.50;0.20;;;22.30;99.90;;;;;;6219870;23;20384;-83
2022/07/11 11:21:32;;;;;;;0.57;0.20;;;22.40;99.90;;;;;;6247538;23;20012;-93
2022/07/11 11:24:00;;;;;;;0.82;0.20;;;22.40;99.90;;;;;;6220692;23;20012;-86
2022/07/11 11:26:45;;;;;;;0.45;0.20;;;22.40;99.90;;;;;;6195737;23;20019;-90
2022/07/11 11:29:11;;;;;;;0.40;0.20;;;22.40;99.90;;;;;;6246744;23;20016;-89
2022/07/11 11:31:37;;;;;;;0.30;0.20;;;22.30;99.90;;;;;;6246979;23;20091;-89
2022/07/11 11:34:04;;;;;;;1.08;0.30;;;22.20;99.90;;;;;;6246920;23;20592;-87
2022/07/11 11:36:30;;;;;;;0.80;0.20;;;22.20;99.90;;;;;;6220040;23;20085;-86
2022/07/11 11:38:56;;;;;;;1.27;0.15;;;22.40;99.90;;;;;;6247253;23;20080;-89
2022/07/11 11:41:28;;;;;;;0.65;0.25;;;22.50;99.90;;;;;;6246852;23;20017;-87
2022/07/11 11:43:55;;;;;;;0.20;0.20;;;22.70;99.90;;;;;;6247364;23;20020;-92
2022/07/11 11:46:29;;;;;;;1.33;0.20;;;22.80;99.90;;;;;;6195000;23;20343;-84
2022/07/11 11:48:59;;;;;;;0.98;0.15;;;22.70;99.90;;;;;;6218742;23;20014;-85
2022/07/11 11:51:28;;;;;;;1.52;0.30;;;22.50;99.90;;;;;;6219756;23;20027;-84
2022/07/11 11:53:55;;;;;;;0.45;0.30;;;22.50;99.90;;;;;;6219699;23;20019;-89
2022/07/11 11:56:30;;;;;;;0.45;0.30;;;22.30;99.90;;;;;;6219890;23;20070;-88
2022/07/11 11:58:58;;;;;;;1.02;0.40;;;22.20;99.90;;;;;;6192922;23;20022;-89
2022/07/11 12:01:31;;;;;;;1.05;0.32;;;22.20;99.90;;;;;;6246913;23;20052;-90
2022/07/11 12:04:00;;;;;;;0.60;0.38;;;22.20;99.90;;;;;;6246367;23;20066;-87
2022/07/11 12:06:28;;;;;;;0.63;0.30;;;22.30;99.90;;;;;;6218924;23;20105;-87
2022/07/11 12:09:05;;;;;;;0.20;0.20;;;22.50;99.90;;;;;;6246133;23;20024;-88
2022/07/11 12:11:31;;;;;;;1.52;0.55;;;23.20;99.90;;;;;;6246194;23;20016;-88
2022/07/11 12:14:03;;;;;;;2.08;0.70;;;23.70;99.90;;;;;;6219596;23;20095;-92
2022/07/11 12:16:41;;;;;;;2.38;0.80;;;24.00;99.90;;;;;;6246484;23;20060;-86
2022/07/11 12:19:32;;;;;;;5.05;0.70;;;24.30;99.90;;;;;;6219371;23;20321;-85
2022/07/11 12:21:59;;;;;;;5.85;1.92;;;24.30;99.90;;;;;;6246217;23;20020;-89
2022/07/11 12:24:29;;;;;;;2.38;0.65;;;23.90;99.90;;;;;;6246061;23;20020;-89
2022/07/11 12:26:55;;;;;;;1.45;0.30;;;23.70;99.90;;;;;;6246315;23;20016;-89
2022/07/11 12:29:27;;;;;;;0.10;0.10;;;23.60;99.90;;;;;;6217744;23;20016;-89
2022/07/11 12:32:10;;;;;;;0.28;0.20;;;23.50;99.90;;;;;;6193680;23;20020;-89
2022/07/11 12:34:35;;;;;;;1.48;0.40;;;23.60;99.90;;;;;;6245874;23;20016;-87
2022/07/11 12:37:07;;;;;;;1.00;0.38;;;23.70;99.90;;;;;;6219171;23;20087;-86
2022/07/11 12:39:34;;;;;;;1.40;0.50;;;23.70;99.90;;;;;;6193625;23;20015;-88
2022/07/11 12:42:19;;;;;;;0.95;0.22;;;23.50;99.90;;;;;;6218947;23;20020;-85
2022/07/11 12:45:07;;;;;;;0.60;0.20;;;23.40;99.90;;;;;;6218441;23;20051;-88
2022/07/11 12:47:35;;;;;;;0.50;0.20;;;23.30;99.90;;;;;;6193864;23;20023;-85
2022/07/11 12:50:23;;;;;;;1.23;0.20;;;23.30;99.90;;;;;;6245694;23;20012;-84
2022/07/11 12:52:54;;;;;;;0.73;0.30;;;23.10;99.90;;;;;;6219021;23;20455;-86
2022/07/11 12:55:30;;;;;;;;;;;23.00;99.90;;;;;;6246290;23;20069;-88
2022/07/11 12:58:13;;;;;;;0.30;0.20;;;23.00;99.90;;;;;;6220027;23;19994;-87
2022/07/11 13:00:56;;;;;;;0.70;0.32;;;23.30;99.90;;;;;;6245956;23;20604;-88